sensor_id;sensor_type;location;lat;lon;timestamp;pressure;altitude;pressure_sealevel;temperature;humidity
63552;BME280;49698;48.072;7.800;2023-05-29T00:01:45;99294.75;;;15.27;70.08
63552;BME280;49698;48.072;7.800;2023-05-29T00:04:13;99292.34;;;15.25;70.31
63552;BME280;49698;48.072;7.800;2023-05-29T00:06:41;99296.78;;;15.21;70.40
63552;BME280;49698;48.072;7.800;2023-05-29T00:09:10;99297.13;;;15.20;70.27
63552;BME280;49698;48.072;7.800;2023-05-29T00:11:38;99298.06;;;15.15;70.33
63552;BME280;49698;48.072;7.800;2023-05-29T00:14:06;99297.72;;;15.08;70.70
63552;BME280;49698;48.072;7.800;2023-05-29T00:16:34;99293.25;;;14.95;71.17
63552;BME280;49698;48.072;7.800;2023-05-29T00:19:04;99302.09;;;14.86;71.30
63552;BME280;49698;48.072;7.800;2023-05-29T00:21:32;99298.75;;;14.81;71.53
63552;BME280;49698;48.072;7.800;2023-05-29T00:24:00;99300.50;;;14.77;71.65
63552;BME280;49698;48.072;7.800;2023-05-29T00:26:29;99294.91;;;14.73;72.10
63552;BME280;49698;48.072;7.800;2023-05-29T00:28:58;99299.53;;;14.73;72.22
63552;BME280;49698;48.072;7.800;2023-05-29T00:31:26;99304.94;;;14.73;72.15
63552;BME280;49698;48.072;7.800;2023-05-29T00:33:54;99298.72;;;14.72;72.32
63552;BME280;49698;48.072;7.800;2023-05-29T00:36:23;99298.72;;;14.72;72.19
63552;BME280;49698;48.072;7.800;2023-05-29T00:38:52;99290.13;;;14.70;72.03
63552;BME280;49698;48.072;7.800;2023-05-29T00:41:20;99292.34;;;14.68;72.21
63552;BME280;49698;48.072;7.800;2023-05-29T00:43:49;99286.44;;;14.66;72.29
63552;BME280;49698;48.072;7.800;2023-05-29T00:46:18;99285.16;;;14.63;72.21
63552;BME280;49698;48.072;7.800;2023-05-29T00:48:47;99292.78;;;14.61;72.48
63552;BME280;49698;48.072;7.800;2023-05-29T00:51:16;99290.41;;;14.60;72.41
63552;BME280;49698;48.072;7.800;2023-05-29T00:53:45;99291.50;;;14.59;72.34
63552;BME280;49698;48.072;7.800;2023-05-29T00:56:14;99296.44;;;14.57;72.22
63552;BME280;49698;48.072;7.800;2023-05-29T00:58:43;99292.63;;;14.58;72.21
63552;BME280;49698;48.072;7.800;2023-05-29T01:01:12;99292.63;;;14.58;72.14
63552;BME280;49698;48.072;7.800;2023-05-29T01:03:42;99297.22;;;14.57;72.25
63552;BME280;49698;48.072;7.800;2023-05-29T01:06:10;99300.56;;;14.54;72.32
63552;BME280;49698;48.072;7.800;2023-05-29T01:08:38;99294.34;;;14.54;72.32
63552;BME280;49698;48.072;7.800;2023-05-29T01:11:12;99300.38;;;14.51;72.54
63552;BME280;49698;48.072;7.800;2023-05-29T01:13:43;99306.09;;;14.49;72.32
63552;BME280;49698;48.072;7.800;2023-05-29T01:16:21;99309.41;;;14.46;72.59
63552;BME280;49698;48.072;7.800;2023-05-29T01:18:57;99308.91;;;14.44;72.38
63552;BME280;49698;48.072;7.800;2023-05-29T01:21:44;99307.13;;;14.39;72.58
63552;BME280;49698;48.072;7.800;2023-05-29T01:24:26;99317.47;;;14.37;72.60
63552;BME280;49698;48.072;7.800;2023-05-29T01:27:03;99313.78;;;14.33;72.95
63552;BME280;49698;48.072;7.800;2023-05-29T01:29:34;99305.97;;;14.32;73.05
63552;BME280;49698;48.072;7.800;2023-05-29T01:32:03;99310.59;;;14.31;72.87
63552;BME280;49698;48.072;7.800;2023-05-29T01:34:32;99307.41;;;14.29;72.92
63552;BME280;49698;48.072;7.800;2023-05-29T01:37:00;99305.78;;;14.28;73.00
63552;BME280;49698;48.072;7.800;2023-05-29T01:39:29;99301.03;;;14.25;72.98
63552;BME280;49698;48.072;7.800;2023-05-29T01:41:59;99297.03;;;14.23;72.99
63552;BME280;49698;48.072;7.800;2023-05-29T01:44:29;99299.22;;;14.20;72.86
63552;BME280;49698;48.072;7.800;2023-05-29T01:46:58;99298.25;;;14.16;73.07
63552;BME280;49698;48.072;7.800;2023-05-29T01:49:26;99299.38;;;14.15;73.12
63552;BME280;49698;48.072;7.800;2023-05-29T01:51:56;99299.69;;;14.14;72.94
63552;BME280;49698;48.072;7.800;2023-05-29T01:54:24;99304.28;;;14.13;72.95
63552;BME280;49698;48.072;7.800;2023-05-29T01:56:52;99311.91;;;14.11;73.04
63552;BME280;49698;48.072;7.800;2023-05-29T01:59:21;99320.31;;;14.10;73.23
63552;BME280;49698;48.072;7.800;2023-05-29T02:01:50;99313.94;;;14.06;73.12
63552;BME280;49698;48.072;7.800;2023-05-29T02:04:18;99314.56;;;14.03;73.11
63552;BME280;49698;48.072;7.800;2023-05-29T02:06:46;99308.16;;;13.99;73.38
63552;BME280;49698;48.072;7.800;2023-05-29T02:09:17;99302.56;;;13.95;73.51
63552;BME280;49698;48.072;7.800;2023-05-29T02:11:45;99306.06;;;13.95;73.56
63552;BME280;49698;48.072;7.800;2023-05-29T02:14:13;99308.78;;;13.95;73.47
63552;BME280;49698;48.072;7.800;2023-05-29T02:16:41;99310.16;;;13.93;73.61
63552;BME280;49698;48.072;7.800;2023-05-29T02:19:12;99299.97;;;13.90;73.46
63552;BME280;49698;48.072;7.800;2023-05-29T02:21:40;99309.19;;;13.89;73.80
63552;BME280;49698;48.072;7.800;2023-05-29T02:24:08;99305.22;;;13.86;73.72
63552;BME280;49698;48.072;7.800;2023-05-29T02:26:36;99307.41;;;13.84;73.72
63552;BME280;49698;48.072;7.800;2023-05-29T02:29:04;99313.13;;;13.83;73.86
63552;BME280;49698;48.072;7.800;2023-05-29T02:31:33;99306.44;;;13.80;73.88
63552;BME280;49698;48.072;7.800;2023-05-29T02:34:04;99307.84;;;13.78;73.71
63552;BME280;49698;48.072;7.800;2023-05-29T02:36:33;99309.25;;;13.75;73.82
63552;BME280;49698;48.072;7.800;2023-05-29T02:39:04;99309.69;;;13.68;73.96
63552;BME280;49698;48.072;7.800;2023-05-29T02:41:32;99303.28;;;13.64;74.13
63552;BME280;49698;48.072;7.800;2023-05-29T02:44:00;99299.59;;;13.60;74.30
63552;BME280;49698;48.072;7.800;2023-05-29T02:46:28;99300.53;;;13.56;74.52
63552;BME280;49698;48.072;7.800;2023-05-29T02:48:56;99298.41;;;13.53;74.52
63552;BME280;49698;48.072;7.800;2023-05-29T02:51:24;99301.13;;;13.53;74.61
63552;BME280;49698;48.072;7.800;2023-05-29T02:53:53;99299.53;;;13.52;74.67
63552;BME280;49698;48.072;7.800;2023-05-29T02:56:22;99291.72;;;13.50;74.78
63552;BME280;49698;48.072;7.800;2023-05-29T02:58:50;99298.53;;;13.48;74.81
63552;BME280;49698;48.072;7.800;2023-05-29T03:01:19;99296.94;;;13.46;74.70
63552;BME280;49698;48.072;7.800;2023-05-29T03:03:48;99307.25;;;13.44;74.87
63552;BME280;49698;48.072;7.800;2023-05-29T03:06:16;99301.34;;;13.42;74.65
63552;BME280;49698;48.072;7.800;2023-05-29T03:08:44;99303.75;;;13.44;74.79
63552;BME280;49698;48.072;7.800;2023-05-29T03:11:14;99293.56;;;13.41;74.97
63552;BME280;49698;48.072;7.800;2023-05-29T03:13:42;99298.16;;;13.40;74.90
63552;BME280;49698;48.072;7.800;2023-05-29T03:16:13;99293.34;;;13.37;75.07
63552;BME280;49698;48.072;7.800;2023-05-29T03:18:42;99292.56;;;13.37;75.15
63552;BME280;49698;48.072;7.800;2023-05-29T03:21:12;99294.47;;;13.36;75.22
63552;BME280;49698;48.072;7.800;2023-05-29T03:23:40;99293.16;;;13.34;75.19
63552;BME280;49698;48.072;7.800;2023-05-29T03:26:08;99284.28;;;13.33;75.21
63552;BME280;49698;48.072;7.800;2023-05-29T03:28:39;99295.88;;;13.34;75.26
63552;BME280;49698;48.072;7.800;2023-05-29T03:31:09;99297.78;;;13.33;75.22
63552;BME280;49698;48.072;7.800;2023-05-29T03:33:37;99303.16;;;13.33;75.36
63552;BME280;49698;48.072;7.800;2023-05-29T03:36:23;99302.97;;;13.30;75.39
63552;BME280;49698;48.072;7.800;2023-05-29T03:38:51;99304.88;;;13.29;75.36
63552;BME280;49698;48.072;7.800;2023-05-29T03:41:20;99311.97;;;13.25;75.63
63552;BME280;49698;48.072;7.800;2023-05-29T03:43:51;99308.19;;;13.26;75.60
63552;BME280;49698;48.072;7.800;2023-05-29T03:46:21;99301.19;;;13.25;75.72
63552;BME280;49698;48.072;7.800;2023-05-29T03:48:49;99303.38;;;13.23;75.74
63552;BME280;49698;48.072;7.800;2023-05-29T03:51:17;99300.69;;;13.23;75.86
63552;BME280;49698;48.072;7.800;2023-05-29T03:53:47;99303.09;;;13.25;75.71
63552;BME280;49698;48.072;7.800;2023-05-29T03:56:15;99312.47;;;13.27;75.66
63552;BME280;49698;48.072;7.800;2023-05-29T03:58:43;99312.19;;;13.29;75.53
63552;BME280;49698;48.072;7.800;2023-05-29T04:01:14;99308.06;;;13.31;75.47
63552;BME280;49698;48.072;7.800;2023-05-29T04:03:42;99309.69;;;13.32;75.40
63552;BME280;49698;48.072;7.800;2023-05-29T04:06:10;99313.66;;;13.35;75.39
63552;BME280;49698;48.072;7.800;2023-05-29T04:08:39;99320.34;;;13.37;75.28
63552;BME280;49698;48.072;7.800;2023-05-29T04:11:08;99323.53;;;13.39;75.25
63552;BME280;49698;48.072;7.800;2023-05-29T04:13:36;99323.25;;;13.41;75.20
63552;BME280;49698;48.072;7.800;2023-05-29T04:16:06;99326.16;;;13.44;75.11
63552;BME280;49698;48.072;7.800;2023-05-29T04:18:35;99330.94;;;13.48;75.01
63552;BME280;49698;48.072;7.800;2023-05-29T04:21:03;99333.03;;;13.51;74.81
63552;BME280;49698;48.072;7.800;2023-05-29T04:23:31;99340.53;;;13.54;74.82
63552;BME280;49698;48.072;7.800;2023-05-29T04:25:59;99352.63;;;13.56;74.76
63552;BME280;49698;48.072;7.800;2023-05-29T04:28:30;99357.09;;;13.61;74.68
63552;BME280;49698;48.072;7.800;2023-05-29T04:30:59;99357.63;;;13.63;74.64
63552;BME280;49698;48.072;7.800;2023-05-29T04:33:28;99357.50;;;13.68;74.40
63552;BME280;49698;48.072;7.800;2023-05-29T04:35:58;99363.88;;;13.72;74.11
63552;BME280;49698;48.072;7.800;2023-05-29T04:38:27;99364.88;;;13.76;74.07
63552;BME280;49698;48.072;7.800;2023-05-29T04:40:56;99347.75;;;13.81;73.84
63552;BME280;49698;48.072;7.800;2023-05-29T04:43:26;99357.63;;;13.85;73.72
63552;BME280;49698;48.072;7.800;2023-05-29T04:46:05;99365.13;;;13.88;73.59
63552;BME280;49698;48.072;7.800;2023-05-29T04:48:35;99371.53;;;13.92;73.52
63552;BME280;49698;48.072;7.800;2023-05-29T04:51:09;99373.03;;;13.99;73.28
63552;BME280;49698;48.072;7.800;2023-05-29T04:53:38;99386.22;;;14.00;73.42
63552;BME280;49698;48.072;7.800;2023-05-29T04:56:08;99383.22;;;14.02;73.16
63552;BME280;49698;48.072;7.800;2023-05-29T04:58:36;99388.78;;;14.05;73.40
63552;BME280;49698;48.072;7.800;2023-05-29T05:01:05;99385.47;;;14.08;73.32
63552;BME280;49698;48.072;7.800;2023-05-29T05:03:36;99383.56;;;14.09;73.20
63552;BME280;49698;48.072;7.800;2023-05-29T05:06:04;99391.88;;;14.12;73.25
63552;BME280;49698;48.072;7.800;2023-05-29T05:08:36;99392.38;;;14.14;73.07
63552;BME280;49698;48.072;7.800;2023-05-29T05:11:04;99400.97;;;14.16;73.06
63552;BME280;49698;48.072;7.800;2023-05-29T05:13:33;99399.06;;;14.17;73.15
63552;BME280;49698;48.072;7.800;2023-05-29T05:16:01;99397.66;;;14.19;73.17
63552;BME280;49698;48.072;7.800;2023-05-29T05:18:30;99392.94;;;14.25;73.04
63552;BME280;49698;48.072;7.800;2023-05-29T05:21:03;99393.41;;;14.27;72.93
63552;BME280;49698;48.072;7.800;2023-05-29T05:23:33;99394.91;;;14.33;72.85
63552;BME280;49698;48.072;7.800;2023-05-29T05:26:15;99399.06;;;14.39;72.75
63552;BME280;49698;48.072;7.800;2023-05-29T05:28:43;99392.44;;;14.46;72.59
63552;BME280;49698;48.072;7.800;2023-05-29T05:31:11;99403.66;;;14.53;72.16
63552;BME280;49698;48.072;7.800;2023-05-29T05:33:40;99397.50;;;14.61;72.07
63552;BME280;49698;48.072;7.800;2023-05-29T05:36:08;99401.19;;;14.65;72.12
63552;BME280;49698;48.072;7.800;2023-05-29T05:38:39;99398.34;;;14.70;71.67
63552;BME280;49698;48.072;7.800;2023-05-29T05:41:07;99399.31;;;14.74;71.69
63552;BME280;49698;48.072;7.800;2023-05-29T05:43:36;99407.31;;;14.79;71.59
63552;BME280;49698;48.072;7.800;2023-05-29T05:46:27;99404.47;;;14.84;71.55
63552;BME280;49698;48.072;7.800;2023-05-29T05:48:55;99400.03;;;14.88;71.51
63552;BME280;49698;48.072;7.800;2023-05-29T05:51:25;99407.81;;;14.90;71.24
63552;BME280;49698;48.072;7.800;2023-05-29T05:53:53;99411.81;;;14.92;71.18
63552;BME280;49698;48.072;7.800;2023-05-29T05:56:22;99406.91;;;14.95;71.36
63552;BME280;49698;48.072;7.800;2023-05-29T05:58:51;99414.38;;;14.98;71.11
63552;BME280;49698;48.072;7.800;2023-05-29T06:01:20;99413.44;;;15.02;71.11
63552;BME280;49698;48.072;7.800;2023-05-29T06:03:49;99405.50;;;15.06;71.34
63552;BME280;49698;48.072;7.800;2023-05-29T06:06:17;99407.31;;;15.10;71.18
63552;BME280;49698;48.072;7.800;2023-05-29T06:08:47;99412.06;;;15.13;71.15
63552;BME280;49698;48.072;7.800;2023-05-29T06:11:16;99410.97;;;15.14;71.19
63552;BME280;49698;48.072;7.800;2023-05-29T06:13:45;99412.25;;;15.17;71.25
63552;BME280;49698;48.072;7.800;2023-05-29T06:16:23;99411.34;;;15.22;70.86
63552;BME280;49698;48.072;7.800;2023-05-29T06:18:51;99408.94;;;15.29;71.01
63552;BME280;49698;48.072;7.800;2023-05-29T06:21:19;99415.03;;;15.34;70.58
63552;BME280;49698;48.072;7.800;2023-05-29T06:23:51;99416.47;;;15.40;70.60
63552;BME280;49698;48.072;7.800;2023-05-29T06:26:20;99419.06;;;15.46;70.46
63552;BME280;49698;48.072;7.800;2023-05-29T06:28:49;99425.44;;;15.50;70.64
63552;BME280;49698;48.072;7.800;2023-05-29T06:31:18;99424.16;;;15.56;70.25
63552;BME280;49698;48.072;7.800;2023-05-29T06:33:48;99422.59;;;15.63;70.13
63552;BME280;49698;48.072;7.800;2023-05-29T06:36:16;99429.81;;;15.68;70.02
63552;BME280;49698;48.072;7.800;2023-05-29T06:38:46;99428.53;;;15.74;69.87
63552;BME280;49698;48.072;7.800;2023-05-29T06:41:15;99431.59;;;15.81;69.80
63552;BME280;49698;48.072;7.800;2023-05-29T06:43:43;99431.91;;;15.88;69.77
63552;BME280;49698;48.072;7.800;2023-05-29T06:46:13;99428.72;;;15.95;69.67
63552;BME280;49698;48.072;7.800;2023-05-29T06:48:41;99430.50;;;16.00;69.62
63552;BME280;49698;48.072;7.800;2023-05-29T06:51:10;99429.84;;;16.03;69.51
63552;BME280;49698;48.072;7.800;2023-05-29T06:53:53;99431.28;;;16.09;69.43
63552;BME280;49698;48.072;7.800;2023-05-29T06:56:22;99434.31;;;16.16;69.30
63552;BME280;49698;48.072;7.800;2023-05-29T06:58:51;99434.16;;;16.21;69.30
63552;BME280;49698;48.072;7.800;2023-05-29T07:01:20;99430.19;;;16.27;69.25
63552;BME280;49698;48.072;7.800;2023-05-29T07:04:01;99442.16;;;16.35;69.38
63552;BME280;49698;48.072;7.800;2023-05-29T07:06:31;99433.50;;;16.42;68.74
63552;BME280;49698;48.072;7.800;2023-05-29T07:09:00;99441.16;;;16.48;68.49
63552;BME280;49698;48.072;7.800;2023-05-29T07:11:28;99436.38;;;16.54;68.40
63552;BME280;49698;48.072;7.800;2023-05-29T07:13:56;99442.09;;;16.61;68.08
63552;BME280;49698;48.072;7.800;2023-05-29T07:16:26;99442.56;;;16.72;67.67
63552;BME280;49698;48.072;7.800;2023-05-29T07:18:59;99441.47;;;16.81;67.35
63552;BME280;49698;48.072;7.800;2023-05-29T07:21:32;99434.09;;;16.91;67.01
63552;BME280;49698;48.072;7.800;2023-05-29T07:24:00;99436.28;;;17.06;66.82
63552;BME280;49698;48.072;7.800;2023-05-29T07:26:28;99438.56;;;17.33;66.20
63552;BME280;49698;48.072;7.800;2023-05-29T07:28:57;99442.03;;;17.72;65.13
63552;BME280;49698;48.072;7.800;2023-05-29T07:31:25;99431.03;;;18.19;63.74
63552;BME280;49698;48.072;7.800;2023-05-29T07:33:53;99425.78;;;18.68;62.47
63552;BME280;49698;48.072;7.800;2023-05-29T07:36:22;99431.56;;;19.12;60.84
63552;BME280;49698;48.072;7.800;2023-05-29T07:38:52;99436.81;;;19.54;59.94
63552;BME280;49698;48.072;7.800;2023-05-29T07:41:26;99435.00;;;19.95;58.82
63552;BME280;49698;48.072;7.800;2023-05-29T07:43:54;99439.91;;;20.30;58.07
63552;BME280;49698;48.072;7.800;2023-05-29T07:46:23;99440.50;;;20.51;57.20
63552;BME280;49698;48.072;7.800;2023-05-29T07:49:00;99431.38;;;20.59;56.80
63552;BME280;49698;48.072;7.800;2023-05-29T07:51:28;99431.94;;;20.65;56.49
63552;BME280;49698;48.072;7.800;2023-05-29T07:53:58;99435.66;;;20.72;56.31
63552;BME280;49698;48.072;7.800;2023-05-29T07:56:27;99436.63;;;20.80;56.00
63552;BME280;49698;48.072;7.800;2023-05-29T07:58:55;99435.56;;;20.85;55.91
63552;BME280;49698;48.072;7.800;2023-05-29T08:01:24;99425.00;;;20.83;56.12
63552;BME280;49698;48.072;7.800;2023-05-29T08:03:53;99415.56;;;20.81;56.08
63552;BME280;49698;48.072;7.800;2023-05-29T08:06:31;99431.75;;;20.73;56.13
63552;BME280;49698;48.072;7.800;2023-05-29T08:09:02;99416.75;;;20.67;56.25
63552;BME280;49698;48.072;7.800;2023-05-29T08:11:31;99425.91;;;20.59;56.26
63552;BME280;49698;48.072;7.800;2023-05-29T08:13:59;99417.09;;;20.50;56.33
63552;BME280;49698;48.072;7.800;2023-05-29T08:16:28;99418.44;;;20.44;56.56
63552;BME280;49698;48.072;7.800;2023-05-29T08:18:56;99419.25;;;20.44;57.02
63552;BME280;49698;48.072;7.800;2023-05-29T08:21:24;99415.44;;;20.61;57.17
63552;BME280;49698;48.072;7.800;2023-05-29T08:23:52;99416.19;;;20.90;56.56
63552;BME280;49698;48.072;7.800;2023-05-29T08:26:21;99414.50;;;21.17;55.78
63552;BME280;49698;48.072;7.800;2023-05-29T08:28:49;99408.97;;;21.45;55.35
63552;BME280;49698;48.072;7.800;2023-05-29T08:31:17;99412.19;;;21.66;54.80
63552;BME280;49698;48.072;7.800;2023-05-29T08:33:46;99407.75;;;21.78;54.07
63552;BME280;49698;48.072;7.800;2023-05-29T08:36:14;99409.50;;;21.86;54.04
63552;BME280;49698;48.072;7.800;2023-05-29T08:38:42;99401.44;;;21.93;53.49
63552;BME280;49698;48.072;7.800;2023-05-29T08:41:16;99403.41;;;21.92;53.54
63552;BME280;49698;48.072;7.800;2023-05-29T08:43:52;99392.44;;;21.92;53.22
63552;BME280;49698;48.072;7.800;2023-05-29T08:46:20;99395.91;;;21.89;52.98
63552;BME280;49698;48.072;7.800;2023-05-29T08:48:49;99391.06;;;21.83;53.19
63552;BME280;49698;48.072;7.800;2023-05-29T08:51:20;99392.50;;;21.77;53.31
63552;BME280;49698;48.072;7.800;2023-05-29T08:53:49;99391.56;;;21.69;53.53
63552;BME280;49698;48.072;7.800;2023-05-29T08:56:18;99393.34;;;21.61;53.66
63552;BME280;49698;48.072;7.800;2023-05-29T08:58:58;99389.13;;;21.48;53.47
63552;BME280;49698;48.072;7.800;2023-05-29T09:01:26;99391.97;;;21.36;53.81
63552;BME280;49698;48.072;7.800;2023-05-29T09:03:54;99386.28;;;21.29;53.82
63552;BME280;49698;48.072;7.800;2023-05-29T09:06:22;99390.00;;;21.20;53.74
63552;BME280;49698;48.072;7.800;2023-05-29T09:08:52;99385.97;;;21.14;53.95
63552;BME280;49698;48.072;7.800;2023-05-29T09:11:20;99390.56;;;21.10;53.94
63552;BME280;49698;48.072;7.800;2023-05-29T09:13:48;99383.06;;;21.07;54.07
63552;BME280;49698;48.072;7.800;2023-05-29T09:16:18;99391.25;;;21.07;54.15
63552;BME280;49698;48.072;7.800;2023-05-29T09:18:46;99389.31;;;21.08;54.10
63552;BME280;49698;48.072;7.800;2023-05-29T09:21:25;99387.09;;;21.13;54.39
63552;BME280;49698;48.072;7.800;2023-05-29T09:23:54;99382.97;;;21.19;54.66
63552;BME280;49698;48.072;7.800;2023-05-29T09:26:22;99385.16;;;21.30;54.43
63552;BME280;49698;48.072;7.800;2023-05-29T09:28:51;99391.97;;;21.36;54.28
63552;BME280;49698;48.072;7.800;2023-05-29T09:31:20;99389.69;;;21.38;54.15
63552;BME280;49698;48.072;7.800;2023-05-29T09:33:48;99385.00;;;21.38;53.83
63552;BME280;49698;48.072;7.800;2023-05-29T09:36:20;99381.47;;;21.38;54.27
63552;BME280;49698;48.072;7.800;2023-05-29T09:38:49;99378.75;;;21.38;54.30
63552;BME280;49698;48.072;7.800;2023-05-29T09:41:23;99383.47;;;21.41;54.33
63552;BME280;49698;48.072;7.800;2023-05-29T09:43:51;99382.78;;;21.44;54.35
63552;BME280;49698;48.072;7.800;2023-05-29T09:46:22;99389.81;;;21.45;54.35
63552;BME280;49698;48.072;7.800;2023-05-29T09:48:50;99388.69;;;21.46;54.22
63552;BME280;49698;48.072;7.800;2023-05-29T09:51:22;99393.00;;;21.47;54.24
63552;BME280;49698;48.072;7.800;2023-05-29T09:53:52;99392.28;;;21.50;54.02
63552;BME280;49698;48.072;7.800;2023-05-29T09:56:22;99387.69;;;21.54;54.21
63552;BME280;49698;48.072;7.800;2023-05-29T09:58:53;99389.00;;;21.60;54.07
63552;BME280;49698;48.072;7.800;2023-05-29T10:01:26;99383.59;;;21.64;53.93
63552;BME280;49698;48.072;7.800;2023-05-29T10:03:54;99377.78;;;21.65;53.97
63552;BME280;49698;48.072;7.800;2023-05-29T10:06:22;99377.88;;;21.69;54.33
63552;BME280;49698;48.072;7.800;2023-05-29T10:08:51;99371.66;;;21.72;54.15
63552;BME280;49698;48.072;7.800;2023-05-29T10:11:23;99366.28;;;21.76;53.89
63552;BME280;49698;48.072;7.800;2023-05-29T10:13:57;99362.41;;;21.77;54.02
63552;BME280;49698;48.072;7.800;2023-05-29T10:16:27;99360.53;;;21.81;54.01
63552;BME280;49698;48.072;7.800;2023-05-29T10:18:57;99363.69;;;21.83;53.82
63552;BME280;49698;48.072;7.800;2023-05-29T10:21:27;99366.88;;;21.85;53.46
63552;BME280;49698;48.072;7.800;2023-05-29T10:23:57;99362.28;;;21.89;53.46
63552;BME280;49698;48.072;7.800;2023-05-29T10:26:26;99368.22;;;21.94;53.61
63552;BME280;49698;48.072;7.800;2023-05-29T10:28:59;99362.91;;;22.02;53.09
63552;BME280;49698;48.072;7.800;2023-05-29T10:31:39;99352.09;;;22.09;52.75
63552;BME280;49698;48.072;7.800;2023-05-29T10:34:18;99348.31;;;22.13;52.65
63552;BME280;49698;48.072;7.800;2023-05-29T10:36:59;99348.84;;;22.19;52.29
63552;BME280;49698;48.072;7.800;2023-05-29T10:39:30;99351.63;;;22.23;51.93
63552;BME280;49698;48.072;7.800;2023-05-29T10:41:59;99342.25;;;22.24;51.96
63552;BME280;49698;48.072;7.800;2023-05-29T10:44:39;99336.78;;;22.24;51.96
63552;BME280;49698;48.072;7.800;2023-05-29T10:47:09;99336.41;;;22.25;52.02
63552;BME280;49698;48.072;7.800;2023-05-29T10:49:39;99335.69;;;22.28;52.35
63552;BME280;49698;48.072;7.800;2023-05-29T10:52:10;99347.94;;;22.34;52.37
63552;BME280;49698;48.072;7.800;2023-05-29T10:54:51;99339.06;;;22.41;51.95
63552;BME280;49698;48.072;7.800;2023-05-29T10:57:21;99340.34;;;22.47;51.52
63552;BME280;49698;48.072;7.800;2023-05-29T11:00:02;99350.69;;;22.57;51.12
63552;BME280;49698;48.072;7.800;2023-05-29T11:02:36;99340.72;;;22.68;50.98
63552;BME280;49698;48.072;7.800;2023-05-29T11:07:55;99332.63;;;22.99;50.17
63552;BME280;49698;48.072;7.800;2023-05-29T11:10:45;99333.28;;;23.15;49.12
63552;BME280;49698;48.072;7.800;2023-05-29T11:13:25;99329.53;;;23.27;49.10
63552;BME280;49698;48.072;7.800;2023-05-29T11:16:12;99334.38;;;23.37;49.46
63552;BME280;49698;48.072;7.800;2023-05-29T11:18:43;99323.53;;;23.44;49.15
63552;BME280;49698;48.072;7.800;2023-05-29T11:21:23;99324.41;;;23.52;48.80
63552;BME280;49698;48.072;7.800;2023-05-29T11:23:57;99327.59;;;23.57;48.70
63552;BME280;49698;48.072;7.800;2023-05-29T11:26:27;99329.75;;;23.67;48.83
63552;BME280;49698;48.072;7.800;2023-05-29T11:28:57;99322.00;;;23.77;48.48
63552;BME280;49698;48.072;7.800;2023-05-29T11:31:27;99336.56;;;23.81;48.38
63552;BME280;49698;48.072;7.800;2023-05-29T11:34:01;99320.97;;;23.88;48.50
63552;BME280;49698;48.072;7.800;2023-05-29T11:36:32;99323.44;;;23.97;48.56
63552;BME280;49698;48.072;7.800;2023-05-29T11:39:01;99321.97;;;24.07;48.53
63552;BME280;49698;48.072;7.800;2023-05-29T11:41:30;99318.13;;;24.15;48.27
63552;BME280;49698;48.072;7.800;2023-05-29T11:43:59;99311.56;;;24.23;48.00
63552;BME280;49698;48.072;7.800;2023-05-29T11:46:28;99311.28;;;24.32;47.58
63552;BME280;49698;48.072;7.800;2023-05-29T11:49:00;99309.03;;;24.41;47.53
63552;BME280;49698;48.072;7.800;2023-05-29T11:51:29;99307.94;;;24.49;47.21
63552;BME280;49698;48.072;7.800;2023-05-29T11:53:57;99302.06;;;24.54;47.39
63552;BME280;49698;48.072;7.800;2023-05-29T11:56:26;99300.16;;;24.58;47.19
63552;BME280;49698;48.072;7.800;2023-05-29T11:58:55;99297.06;;;24.63;47.19
63552;BME280;49698;48.072;7.800;2023-05-29T12:01:24;99304.56;;;24.67;46.71
63552;BME280;49698;48.072;7.800;2023-05-29T12:03:53;99301.44;;;24.72;46.73
63552;BME280;49698;48.072;7.800;2023-05-29T12:06:32;99301.53;;;24.79;46.66
63552;BME280;49698;48.072;7.800;2023-05-29T12:09:01;99310.59;;;24.86;46.54
63552;BME280;49698;48.072;7.800;2023-05-29T12:11:31;99298.84;;;24.93;46.62
63552;BME280;49698;48.072;7.800;2023-05-29T12:14:01;99302.44;;;25.01;46.33
63552;BME280;49698;48.072;7.800;2023-05-29T12:16:30;99299.75;;;25.08;46.42
63552;BME280;49698;48.072;7.800;2023-05-29T12:19:01;99299.84;;;25.15;46.13
63552;BME280;49698;48.072;7.800;2023-05-29T12:21:29;99306.94;;;25.20;45.97
63552;BME280;49698;48.072;7.800;2023-05-29T12:23:58;99301.84;;;25.22;45.91
63552;BME280;49698;48.072;7.800;2023-05-29T12:26:30;99291.22;;;25.24;46.01
63552;BME280;49698;48.072;7.800;2023-05-29T12:29:02;99293.22;;;25.27;45.83
63552;BME280;49698;48.072;7.800;2023-05-29T12:31:32;99280.69;;;25.29;45.79
63552;BME280;49698;48.072;7.800;2023-05-29T12:34:01;99293.66;;;25.29;45.98
63552;BME280;49698;48.072;7.800;2023-05-29T12:36:29;99294.78;;;25.28;45.82
63552;BME280;49698;48.072;7.800;2023-05-29T12:39:06;99297.53;;;25.28;45.74
63552;BME280;49698;48.072;7.800;2023-05-29T12:41:37;99296.00;;;25.30;45.65
63552;BME280;49698;48.072;7.800;2023-05-29T12:44:06;99288.53;;;25.31;45.40
63552;BME280;49698;48.072;7.800;2023-05-29T12:46:36;99290.50;;;25.30;45.80
63552;BME280;49698;48.072;7.800;2023-05-29T12:49:11;99296.41;;;25.29;45.33
63552;BME280;49698;48.072;7.800;2023-05-29T12:51:41;99292.47;;;25.30;45.55
63552;BME280;49698;48.072;7.800;2023-05-29T12:54:11;99289.31;;;25.31;45.54
63552;BME280;49698;48.072;7.800;2023-05-29T12:56:39;99294.44;;;25.33;45.37
63552;BME280;49698;48.072;7.800;2023-05-29T12:59:07;99288.94;;;25.29;44.55
63552;BME280;49698;48.072;7.800;2023-05-29T13:01:37;99284.59;;;25.25;44.88
63552;BME280;49698;48.072;7.800;2023-05-29T13:04:05;99283.78;;;25.24;45.08
63552;BME280;49698;48.072;7.800;2023-05-29T13:06:34;99277.91;;;25.26;44.57
63552;BME280;49698;48.072;7.800;2023-05-29T13:09:03;99284.22;;;25.30;44.67
63552;BME280;49698;48.072;7.800;2023-05-29T13:11:33;99296.84;;;25.38;44.63
63552;BME280;49698;48.072;7.800;2023-05-29T13:14:02;99295.31;;;25.44;44.12
63552;BME280;49698;48.072;7.800;2023-05-29T13:16:30;99288.25;;;25.54;43.84
63552;BME280;49698;48.072;7.800;2023-05-29T13:18:58;99274.94;;;25.59;43.71